sensor_id;sensor_type;location;lat;lon;timestamp;pressure;altitude;pressure_sealevel;temperature
71081;BMP180;58740;50.672;18.690;2023-06-22T00:01:28;99185.20;;;23.10
71081;BMP180;58740;50.672;18.690;2023-06-22T00:03:56;99185.80;;;23.10
71081;BMP180;58740;50.672;18.690;2023-06-22T00:06:24;99190.40;;;23.10
71081;BMP180;58740;50.672;18.690;2023-06-22T00:08:52;99177.20;;;23.10
71081;BMP180;58740;50.672;18.690;2023-06-22T00:11:20;99178.00;;;23.06
71081;BMP180;58740;50.672;18.690;2023-06-22T00:13:52;99180.60;;;23.00
71081;BMP180;58740;50.672;18.690;2023-06-22T00:16:44;99182.00;;;23.00
71081;BMP180;58740;50.672;18.690;2023-06-22T00:19:35;99182.00;;;23.00
71081;BMP180;58740;50.672;18.690;2023-06-22T00:22:05;99190.00;;;23.00
71081;BMP180;58740;50.672;18.690;2023-06-22T00:24:36;99191.20;;;22.98
71081;BMP180;58740;50.672;18.690;2023-06-22T00:27:05;99191.20;;;22.98
71081;BMP180;58740;50.672;18.690;2023-06-22T00:29:53;99192.60;;;22.98
71081;BMP180;58740;50.672;18.690;2023-06-22T00:32:42;99199.80;;;22.90
71081;BMP180;58740;50.672;18.690;2023-06-22T00:35:56;99204.00;;;22.90
71081;BMP180;58740;50.672;18.690;2023-06-22T00:38:44;99203.20;;;22.90
71081;BMP180;58740;50.672;18.690;2023-06-22T00:41:12;99200.00;;;22.80
71081;BMP180;58740;50.672;18.690;2023-06-22T00:43:41;99196.00;;;22.80
71081;BMP180;58740;50.672;18.690;2023-06-22T00:46:17;99201.40;;;22.80
71081;BMP180;58740;50.672;18.690;2023-06-22T00:48:47;99197.40;;;22.80
71081;BMP180;58740;50.672;18.690;2023-06-22T00:51:15;99208.60;;;22.74
71081;BMP180;58740;50.672;18.690;2023-06-22T00:53:43;99206.80;;;22.70
71081;BMP180;58740;50.672;18.690;2023-06-22T00:56:32;99211.20;;;22.70
71081;BMP180;58740;50.672;18.690;2023-06-22T00:59:56;99208.40;;;22.70
71081;BMP180;58740;50.672;18.690;2023-06-22T01:02:35;99197.80;;;22.70
71081;BMP180;58740;50.672;18.690;2023-06-22T01:05:05;99185.60;;;22.60
71081;BMP180;58740;50.672;18.690;2023-06-22T01:11:10;99194.20;;;22.60
71081;BMP180;58740;50.672;18.690;2023-06-22T01:16:31;99198.80;;;22.54
71081;BMP180;58740;50.672;18.690;2023-06-22T01:19:55;99198.20;;;22.50
71081;BMP180;58740;50.672;18.690;2023-06-22T01:26:19;99197.60;;;22.40
71081;BMP180;58740;50.672;18.690;2023-06-22T01:28:52;99193.00;;;22.38
71081;BMP180;58740;50.672;18.690;2023-06-22T01:31:26;99198.20;;;22.30
71081;BMP180;58740;50.672;18.690;2023-06-22T01:34:23;99201.00;;;22.30
71081;BMP180;58740;50.672;18.690;2023-06-22T01:36:52;99194.80;;;22.20
71081;BMP180;58740;50.672;18.690;2023-06-22T01:39:21;99199.60;;;22.20
71081;BMP180;58740;50.672;18.690;2023-06-22T01:41:50;99203.40;;;22.20
71081;BMP180;58740;50.672;18.690;2023-06-22T01:44:18;99203.60;;;22.26
71081;BMP180;58740;50.672;18.690;2023-06-22T01:46:46;99196.80;;;22.20
71081;BMP180;58740;50.672;18.690;2023-06-22T01:49:46;99198.00;;;22.20
71081;BMP180;58740;50.672;18.690;2023-06-22T01:52:38;99204.20;;;22.20
71081;BMP180;58740;50.672;18.690;2023-06-22T01:55:17;99203.20;;;22.20
71081;BMP180;58740;50.672;18.690;2023-06-22T01:57:45;99209.40;;;22.20
71081;BMP180;58740;50.672;18.690;2023-06-22T02:00:20;99218.40;;;22.10
71081;BMP180;58740;50.672;18.690;2023-06-22T02:03:11;99211.80;;;22.10
71081;BMP180;58740;50.672;18.690;2023-06-22T02:06:16;99216.00;;;22.10
71081;BMP180;58740;50.672;18.690;2023-06-22T02:09:01;99220.60;;;22.10
71081;BMP180;58740;50.672;18.690;2023-06-22T02:11:52;99217.60;;;22.10
71081;BMP180;58740;50.672;18.690;2023-06-22T02:15:10;99223.60;;;22.08
71081;BMP180;58740;50.672;18.690;2023-06-22T02:18:04;99234.00;;;22.00
71081;BMP180;58740;50.672;18.690;2023-06-22T02:20:54;99235.60;;;22.00
71081;BMP180;58740;50.672;18.690;2023-06-22T02:23:24;99241.20;;;22.00
71081;BMP180;58740;50.672;18.690;2023-06-22T02:25:52;99247.00;;;22.00
71081;BMP180;58740;50.672;18.690;2023-06-22T02:28:19;99244.80;;;21.90
71081;BMP180;58740;50.672;18.690;2023-06-22T02:30:47;99246.40;;;21.94
71081;BMP180;58740;50.672;18.690;2023-06-22T02:33:15;99243.20;;;21.90
71081;BMP180;58740;50.672;18.690;2023-06-22T02:35:43;99248.60;;;21.90
71081;BMP180;58740;50.672;18.690;2023-06-22T02:38:33;99249.60;;;21.90
71081;BMP180;58740;50.672;18.690;2023-06-22T02:41:02;99253.40;;;21.90
71081;BMP180;58740;50.672;18.690;2023-06-22T02:43:54;99251.60;;;21.80
71081;BMP180;58740;50.672;18.690;2023-06-22T02:47:06;99258.60;;;21.80
71081;BMP180;58740;50.672;18.690;2023-06-22T02:49:35;99268.40;;;21.70
71081;BMP180;58740;50.672;18.690;2023-06-22T02:52:03;99264.20;;;21.70
71081;BMP180;58740;50.672;18.690;2023-06-22T02:54:33;99266.60;;;21.60
71081;BMP180;58740;50.672;18.690;2023-06-22T02:57:01;99269.80;;;21.60
71081;BMP180;58740;50.672;18.690;2023-06-22T02:59:33;99272.60;;;21.60
71081;BMP180;58740;50.672;18.690;2023-06-22T03:02:03;99272.00;;;21.60
71081;BMP180;58740;50.672;18.690;2023-06-22T03:04:35;99280.80;;;21.60
71081;BMP180;58740;50.672;18.690;2023-06-22T03:07:04;99281.60;;;21.60
71081;BMP180;58740;50.672;18.690;2023-06-22T03:09:34;99283.40;;;21.60
71081;BMP180;58740;50.672;18.690;2023-06-22T03:12:02;99286.80;;;21.60
71081;BMP180;58740;50.672;18.690;2023-06-22T03:14:29;99285.00;;;21.60
71081;BMP180;58740;50.672;18.690;2023-06-22T03:16:57;99285.40;;;21.64
71081;BMP180;58740;50.672;18.690;2023-06-22T03:19:30;99289.60;;;21.70
71081;BMP180;58740;50.672;18.690;2023-06-22T03:22:00;99290.40;;;21.70
71081;BMP180;58740;50.672;18.690;2023-06-22T03:24:28;99290.00;;;21.70
71081;BMP180;58740;50.672;18.690;2023-06-22T03:26:57;99291.00;;;21.70
71081;BMP180;58740;50.672;18.690;2023-06-22T03:29:25;99292.40;;;21.70
71081;BMP180;58740;50.672;18.690;2023-06-22T03:31:56;99294.80;;;21.70
71081;BMP180;58740;50.672;18.690;2023-06-22T03:34:28;99295.80;;;21.70
71081;BMP180;58740;50.672;18.690;2023-06-22T03:37:01;99293.60;;;21.80
71081;BMP180;58740;50.672;18.690;2023-06-22T03:39:31;99294.60;;;21.80
71081;BMP180;58740;50.672;18.690;2023-06-22T03:42:00;99301.80;;;21.80
71081;BMP180;58740;50.672;18.690;2023-06-22T03:44:48;99307.40;;;21.90
71081;BMP180;58740;50.672;18.690;2023-06-22T03:47:20;99306.40;;;21.90
71081;BMP180;58740;50.672;18.690;2023-06-22T03:50:11;99314.20;;;21.90
71081;BMP180;58740;50.672;18.690;2023-06-22T03:52:44;99315.20;;;22.00
71081;BMP180;58740;50.672;18.690;2023-06-22T03:55:16;99313.60;;;22.00
71081;BMP180;58740;50.672;18.690;2023-06-22T03:57:45;99321.60;;;22.00
71081;BMP180;58740;50.672;18.690;2023-06-22T04:00:14;99320.60;;;22.08
71081;BMP180;58740;50.672;18.690;2023-06-22T04:02:43;99320.20;;;22.10
71081;BMP180;58740;50.672;18.690;2023-06-22T04:05:17;99321.80;;;22.10
71081;BMP180;58740;50.672;18.690;2023-06-22T04:07:49;99322.00;;;22.20
71081;BMP180;58740;50.672;18.690;2023-06-22T04:10:18;99322.00;;;22.20
71081;BMP180;58740;50.672;18.690;2023-06-22T04:13:07;99321.00;;;22.20
71081;BMP180;58740;50.672;18.690;2023-06-22T04:15:46;99322.80;;;22.28
71081;BMP180;58740;50.672;18.690;2023-06-22T04:18:34;99319.60;;;22.30
71081;BMP180;58740;50.672;18.690;2023-06-22T04:21:45;99320.80;;;22.36
71081;BMP180;58740;50.672;18.690;2023-06-22T04:24:39;99322.00;;;22.40
71081;BMP180;58740;50.672;18.690;2023-06-22T04:27:07;99329.20;;;22.50
71081;BMP180;58740;50.672;18.690;2023-06-22T04:29:35;99330.40;;;22.50
71081;BMP180;58740;50.672;18.690;2023-06-22T04:32:04;99338.80;;;22.50
71081;BMP180;58740;50.672;18.690;2023-06-22T04:34:33;99342.00;;;22.60
71081;BMP180;58740;50.672;18.690;2023-06-22T04:37:06;99342.00;;;22.62
71081;BMP180;58740;50.672;18.690;2023-06-22T04:39:34;99341.80;;;22.70
71081;BMP180;58740;50.672;18.690;2023-06-22T04:42:02;99343.40;;;22.72
71081;BMP180;58740;50.672;18.690;2023-06-22T04:44:31;99340.00;;;22.80
71081;BMP180;58740;50.672;18.690;2023-06-22T04:47:01;99345.80;;;22.90
71081;BMP180;58740;50.672;18.690;2023-06-22T04:49:36;99344.00;;;22.90
71081;BMP180;58740;50.672;18.690;2023-06-22T04:52:07;99351.40;;;23.00
71081;BMP180;58740;50.672;18.690;2023-06-22T04:54:38;99350.00;;;23.08
71081;BMP180;58740;50.672;18.690;2023-06-22T04:57:07;99354.60;;;23.12
71081;BMP180;58740;50.672;18.690;2023-06-22T04:59:40;99348.40;;;23.20
71081;BMP180;58740;50.672;18.690;2023-06-22T05:02:10;99353.40;;;23.30
71081;BMP180;58740;50.672;18.690;2023-06-22T05:04:40;99353.80;;;23.40
71081;BMP180;58740;50.672;18.690;2023-06-22T05:07:09;99347.60;;;23.40
71081;BMP180;58740;50.672;18.690;2023-06-22T05:09:38;99356.80;;;23.50
71081;BMP180;58740;50.672;18.690;2023-06-22T05:12:07;99356.20;;;23.50
71081;BMP180;58740;50.672;18.690;2023-06-22T05:14:42;99356.80;;;23.50
71081;BMP180;58740;50.672;18.690;2023-06-22T05:17:10;99354.00;;;23.50
71081;BMP180;58740;50.672;18.690;2023-06-22T05:19:57;99356.20;;;23.50
71081;BMP180;58740;50.672;18.690;2023-06-22T05:22:40;99358.80;;;23.50
71081;BMP180;58740;50.672;18.690;2023-06-22T05:25:11;99357.80;;;23.56
71081;BMP180;58740;50.672;18.690;2023-06-22T05:27:42;99355.40;;;23.60
71081;BMP180;58740;50.672;18.690;2023-06-22T05:30:13;99353.00;;;23.60
71081;BMP180;58740;50.672;18.690;2023-06-22T05:32:41;99351.20;;;23.60
71081;BMP180;58740;50.672;18.690;2023-06-22T05:35:10;99350.60;;;23.66
71081;BMP180;58740;50.672;18.690;2023-06-22T05:37:37;99351.40;;;23.70
71081;BMP180;58740;50.672;18.690;2023-06-22T05:40:06;99359.60;;;23.70
71081;BMP180;58740;50.672;18.690;2023-06-22T05:42:34;99347.60;;;23.80
71081;BMP180;58740;50.672;18.690;2023-06-22T05:45:03;99351.40;;;23.90
71081;BMP180;58740;50.672;18.690;2023-06-22T05:47:31;99350.20;;;23.90
71081;BMP180;58740;50.672;18.690;2023-06-22T05:49:59;99356.40;;;23.90
71081;BMP180;58740;50.672;18.690;2023-06-22T05:52:27;99357.40;;;24.00
71081;BMP180;58740;50.672;18.690;2023-06-22T05:54:54;99351.60;;;24.10
71081;BMP180;58740;50.672;18.690;2023-06-22T05:57:22;99360.00;;;24.10
71081;BMP180;58740;50.672;18.690;2023-06-22T05:59:50;99361.80;;;24.20
71081;BMP180;58740;50.672;18.690;2023-06-22T06:02:18;99358.40;;;24.32
71081;BMP180;58740;50.672;18.690;2023-06-22T06:04:49;99348.40;;;24.44
71081;BMP180;58740;50.672;18.690;2023-06-22T06:07:18;99354.60;;;24.52
71081;BMP180;58740;50.672;18.690;2023-06-22T06:09:46;99347.20;;;24.60
71081;BMP180;58740;50.672;18.690;2023-06-22T06:12:15;99349.60;;;24.70
71081;BMP180;58740;50.672;18.690;2023-06-22T06:14:43;99351.40;;;24.80
71081;BMP180;58740;50.672;18.690;2023-06-22T06:17:11;99352.80;;;24.90
71081;BMP180;58740;50.672;18.690;2023-06-22T06:19:39;99359.80;;;25.00
71081;BMP180;58740;50.672;18.690;2023-06-22T06:22:07;99356.60;;;25.00
71081;BMP180;58740;50.672;18.690;2023-06-22T06:24:35;99354.60;;;25.00
71081;BMP180;58740;50.672;18.690;2023-06-22T06:27:03;99363.40;;;25.00
71081;BMP180;58740;50.672;18.690;2023-06-22T06:29:33;99361.80;;;24.90
71081;BMP180;58740;50.672;18.690;2023-06-22T06:32:01;99358.00;;;25.00
71081;BMP180;58740;50.672;18.690;2023-06-22T06:34:29;99361.00;;;25.00
71081;BMP180;58740;50.672;18.690;2023-06-22T06:36:57;99357.60;;;25.00
71081;BMP180;58740;50.672;18.690;2023-06-22T06:39:40;99351.40;;;25.00
71081;BMP180;58740;50.672;18.690;2023-06-22T06:42:11;99352.20;;;24.90
71081;BMP180;58740;50.672;18.690;2023-06-22T06:44:39;99357.00;;;25.00
71081;BMP180;58740;50.672;18.690;2023-06-22T06:47:11;99350.00;;;25.08
71081;BMP180;58740;50.672;18.690;2023-06-22T06:49:38;99350.60;;;25.10
71081;BMP180;58740;50.672;18.690;2023-06-22T06:52:09;99352.80;;;25.20
71081;BMP180;58740;50.672;18.690;2023-06-22T06:54:37;99348.40;;;25.30
71081;BMP180;58740;50.672;18.690;2023-06-22T06:57:05;99343.60;;;25.30
71081;BMP180;58740;50.672;18.690;2023-06-22T06:59:32;99344.40;;;25.40
71081;BMP180;58740;50.672;18.690;2023-06-22T07:02:00;99340.60;;;25.40
71081;BMP180;58740;50.672;18.690;2023-06-22T07:04:28;99344.20;;;25.46
71081;BMP180;58740;50.672;18.690;2023-06-22T07:06:56;99352.20;;;25.50
71081;BMP180;58740;50.672;18.690;2023-06-22T07:09:23;99352.20;;;25.50
71081;BMP180;58740;50.672;18.690;2023-06-22T07:11:51;99348.40;;;25.50
71081;BMP180;58740;50.672;18.690;2023-06-22T07:14:19;99344.60;;;25.50
71081;BMP180;58740;50.672;18.690;2023-06-22T07:16:47;99339.80;;;25.60
71081;BMP180;58740;50.672;18.690;2023-06-22T07:19:15;99344.40;;;25.60
71081;BMP180;58740;50.672;18.690;2023-06-22T07:21:43;99345.80;;;25.76
71081;BMP180;58740;50.672;18.690;2023-06-22T07:24:11;99348.20;;;25.90
71081;BMP180;58740;50.672;18.690;2023-06-22T07:26:39;99349.20;;;26.00
71081;BMP180;58740;50.672;18.690;2023-06-22T07:29:07;99352.40;;;26.10
71081;BMP180;58740;50.672;18.690;2023-06-22T07:31:35;99351.40;;;26.18
71081;BMP180;58740;50.672;18.690;2023-06-22T07:34:03;99356.00;;;26.24
71081;BMP180;58740;50.672;18.690;2023-06-22T07:36:32;99347.60;;;26.30
71081;BMP180;58740;50.672;18.690;2023-06-22T07:39:00;99353.00;;;26.20
71081;BMP180;58740;50.672;18.690;2023-06-22T07:41:27;99350.60;;;26.20
71081;BMP180;58740;50.672;18.690;2023-06-22T07:43:55;99354.20;;;26.20
71081;BMP180;58740;50.672;18.690;2023-06-22T07:46:23;99351.20;;;26.10
71081;BMP180;58740;50.672;18.690;2023-06-22T07:48:51;99352.60;;;26.10
71081;BMP180;58740;50.672;18.690;2023-06-22T07:51:23;99355.40;;;26.10
71081;BMP180;58740;50.672;18.690;2023-06-22T07:53:51;99361.60;;;26.20
71081;BMP180;58740;50.672;18.690;2023-06-22T07:56:19;99365.40;;;26.28
71081;BMP180;58740;50.672;18.690;2023-06-22T07:58:47;99363.00;;;26.30
71081;BMP180;58740;50.672;18.690;2023-06-22T08:01:15;99367.40;;;26.40
71081;BMP180;58740;50.672;18.690;2023-06-22T08:03:44;99370.80;;;26.46
71081;BMP180;58740;50.672;18.690;2023-06-22T08:06:12;99374.00;;;26.48
71081;BMP180;58740;50.672;18.690;2023-06-22T08:08:40;99376.20;;;26.44
71081;BMP180;58740;50.672;18.690;2023-06-22T08:11:08;99371.00;;;26.50
71081;BMP180;58740;50.672;18.690;2023-06-22T08:13:36;99383.00;;;26.50
71081;BMP180;58740;50.672;18.690;2023-06-22T08:16:04;99376.80;;;26.50
71081;BMP180;58740;50.672;18.690;2023-06-22T08:18:32;99387.60;;;26.60
71081;BMP180;58740;50.672;18.690;2023-06-22T08:21:00;99388.60;;;26.70
71081;BMP180;58740;50.672;18.690;2023-06-22T08:23:30;99385.60;;;26.70
71081;BMP180;58740;50.672;18.690;2023-06-22T08:25:57;99391.80;;;26.72
71081;BMP180;58740;50.672;18.690;2023-06-22T08:28:25;99396.60;;;26.80
71081;BMP180;58740;50.672;18.690;2023-06-22T08:30:53;99401.80;;;26.90
71081;BMP180;58740;50.672;18.690;2023-06-22T08:33:23;99398.00;;;26.90
71081;BMP180;58740;50.672;18.690;2023-06-22T08:35:57;99398.60;;;27.00
71081;BMP180;58740;50.672;18.690;2023-06-22T08:38:26;99401.00;;;27.10
71081;BMP180;58740;50.672;18.690;2023-06-22T08:40:53;99405.00;;;27.20
71081;BMP180;58740;50.672;18.690;2023-06-22T08:43:21;99401.80;;;27.20
71081;BMP180;58740;50.672;18.690;2023-06-22T08:45:49;99398.40;;;27.30
71081;BMP180;58740;50.672;18.690;2023-06-22T08:48:17;99397.60;;;27.30
71081;BMP180;58740;50.672;18.690;2023-06-22T08:50:45;99406.20;;;27.28
71081;BMP180;58740;50.672;18.690;2023-06-22T08:53:12;99405.00;;;27.20
71081;BMP180;58740;50.672;18.690;2023-06-22T08:55:40;99407.20;;;27.20
71081;BMP180;58740;50.672;18.690;2023-06-22T08:58:08;99402.60;;;27.20
71081;BMP180;58740;50.672;18.690;2023-06-22T09:00:36;99408.00;;;27.20
71081;BMP180;58740;50.672;18.690;2023-06-22T09:03:05;99406.00;;;27.20
71081;BMP180;58740;50.672;18.690;2023-06-22T09:05:33;99402.80;;;27.30
71081;BMP180;58740;50.672;18.690;2023-06-22T09:08:01;99400.00;;;27.40
71081;BMP180;58740;50.672;18.690;2023-06-22T09:10:29;99401.80;;;27.40
71081;BMP180;58740;50.672;18.690;2023-06-22T09:12:57;99397.00;;;27.40
71081;BMP180;58740;50.672;18.690;2023-06-22T09:15:25;99397.20;;;27.40
71081;BMP180;58740;50.672;18.690;2023-06-22T09:17:52;99395.80;;;27.40
71081;BMP180;58740;50.672;18.690;2023-06-22T09:20:22;99389.20;;;27.34
71081;BMP180;58740;50.672;18.690;2023-06-22T09:22:50;99388.00;;;27.24
71081;BMP180;58740;50.672;18.690;2023-06-22T09:25:18;99386.80;;;27.30
71081;BMP180;58740;50.672;18.690;2023-06-22T09:27:48;99377.20;;;27.30
71081;BMP180;58740;50.672;18.690;2023-06-22T09:30:16;99378.20;;;27.30
71081;BMP180;58740;50.672;18.690;2023-06-22T09:32:43;99380.40;;;27.30
71081;BMP180;58740;50.672;18.690;2023-06-22T09:35:11;99372.80;;;27.30
71081;BMP180;58740;50.672;18.690;2023-06-22T09:37:41;99366.00;;;27.30
71081;BMP180;58740;50.672;18.690;2023-06-22T09:40:09;99360.60;;;27.36
71081;BMP180;58740;50.672;18.690;2023-06-22T09:42:39;99361.40;;;27.40
71081;BMP180;58740;50.672;18.690;2023-06-22T09:45:07;99362.80;;;27.40
71081;BMP180;58740;50.672;18.690;2023-06-22T09:47:36;99357.40;;;27.40
71081;BMP180;58740;50.672;18.690;2023-06-22T09:50:05;99352.20;;;27.40
71081;BMP180;58740;50.672;18.690;2023-06-22T09:52:33;99349.40;;;27.44
71081;BMP180;58740;50.672;18.690;2023-06-22T09:55:15;99345.80;;;27.32
71081;BMP180;58740;50.672;18.690;2023-06-22T09:57:44;99342.00;;;27.30
71081;BMP180;58740;50.672;18.690;2023-06-22T10:00:12;99342.40;;;27.40
71081;BMP180;58740;50.672;18.690;2023-06-22T10:02:41;99340.20;;;27.40
71081;BMP180;58740;50.672;18.690;2023-06-22T10:05:10;99331.60;;;27.50
71081;BMP180;58740;50.672;18.690;2023-06-22T10:07:40;99337.20;;;27.58
71081;BMP180;58740;50.672;18.690;2023-06-22T10:10:12;99333.40;;;27.60
71081;BMP180;58740;50.672;18.690;2023-06-22T10:12:47;99328.40;;;27.60
71081;BMP180;58740;50.672;18.690;2023-06-22T10:15:15;99333.20;;;27.60
71081;BMP180;58740;50.672;18.690;2023-06-22T10:17:44;99331.40;;;27.60
71081;BMP180;58740;50.672;18.690;2023-06-22T10:20:13;99334.40;;;27.60
71081;BMP180;58740;50.672;18.690;2023-06-22T10:22:44;99333.80;;;27.60
71081;BMP180;58740;50.672;18.690;2023-06-22T10:25:14;99332.80;;;27.60
71081;BMP180;58740;50.672;18.690;2023-06-22T10:28:24;99333.60;;;27.60
71081;BMP180;58740;50.672;18.690;2023-06-22T10:30:52;99327.00;;;27.60
71081;BMP180;58740;50.672;18.690;2023-06-22T10:33:43;99337.60;;;27.70
71081;BMP180;58740;50.672;18.690;2023-06-22T10:36:11;99337.40;;;27.70
71081;BMP180;58740;50.672;18.690;2023-06-22T10:38:39;99332.00;;;27.70
71081;BMP180;58740;50.672;18.690;2023-06-22T10:41:22;99345.40;;;27.70
71081;BMP180;58740;50.672;18.690;2023-06-22T10:43:50;99347.20;;;27.80
71081;BMP180;58740;50.672;18.690;2023-06-22T10:46:18;99345.60;;;27.84
71081;BMP180;58740;50.672;18.690;2023-06-22T10:48:46;99339.20;;;27.90
71081;BMP180;58740;50.672;18.690;2023-06-22T10:51:14;99339.00;;;27.90
71081;BMP180;58740;50.672;18.690;2023-06-22T10:53:41;99337.20;;;27.92
71081;BMP180;58740;50.672;18.690;2023-06-22T10:56:10;99337.80;;;28.00
71081;BMP180;58740;50.672;18.690;2023-06-22T10:58:39;99340.00;;;28.00
71081;BMP180;58740;50.672;18.690;2023-06-22T11:01:07;99334.80;;;28.00
71081;BMP180;58740;50.672;18.690;2023-06-22T11:03:44;99331.80;;;28.00
71081;BMP180;58740;50.672;18.690;2023-06-22T11:06:12;99327.60;;;28.00
71081;BMP180;58740;50.672;18.690;2023-06-22T11:08:47;99324.40;;;28.10
71081;BMP180;58740;50.672;18.690;2023-06-22T11:11:31;99324.20;;;28.10
71081;BMP180;58740;50.672;18.690;2023-06-22T11:13:59;99323.20;;;28.16
71081;BMP180;58740;50.672;18.690;2023-06-22T11:16:27;99316.80;;;28.20
71081;BMP180;58740;50.672;18.690;2023-06-22T11:18:55;99322.40;;;28.10
71081;BMP180;58740;50.672;18.690;2023-06-22T11:21:23;99319.40;;;28.02
71081;BMP180;58740;50.672;18.690;2023-06-22T11:23:59;99317.20;;;28.00
71081;BMP180;58740;50.672;18.690;2023-06-22T11:26:31;99312.80;;;28.00
71081;BMP180;58740;50.672;18.690;2023-06-22T11:28:59;99304.80;;;28.00
71081;BMP180;58740;50.672;18.690;2023-06-22T11:31:27;99307.60;;;28.00
71081;BMP180;58740;50.672;18.690;2023-06-22T11:33:58;99305.80;;;28.00
71081;BMP180;58740;50.672;18.690;2023-06-22T11:36:30;99305.00;;;27.98
71081;BMP180;58740;50.672;18.690;2023-06-22T11:39:01;99299.20;;;28.00
71081;BMP180;58740;50.672;18.690;2023-06-22T11:41:32;99298.40;;;28.00
71081;BMP180;58740;50.672;18.690;2023-06-22T11:44:00;99302.00;;;28.10
71081;BMP180;58740;50.672;18.690;2023-06-22T11:46:28;99302.40;;;28.20
71081;BMP180;58740;50.672;18.690;2023-06-22T11:49:01;99295.40;;;28.20
71081;BMP180;58740;50.672;18.690;2023-06-22T11:51:49;99294.20;;;28.30
71081;BMP180;58740;50.672;18.690;2023-06-22T11:54:20;99286.80;;;28.30
71081;BMP180;58740;50.672;18.690;2023-06-22T11:56:49;99289.80;;;28.30
71081;BMP180;58740;50.672;18.690;2023-06-22T11:59:17;99285.40;;;28.20
71081;BMP180;58740;50.672;18.690;2023-06-22T12:01:50;99280.40;;;28.20
71081;BMP180;58740;50.672;18.690;2023-06-22T12:04:28;99277.20;;;28.20
71081;BMP180;58740;50.672;18.690;2023-06-22T12:06:56;99273.60;;;28.20
71081;BMP180;58740;50.672;18.690;2023-06-22T12:09:26;99269.80;;;28.20
71081;BMP180;58740;50.672;18.690;2023-06-22T12:11:54;99265.40;;;28.20
71081;BMP180;58740;50.672;18.690;2023-06-22T12:14:21;99265.80;;;28.20
71081;BMP180;58740;50.672;18.690;2023-06-22T12:16:49;99260.40;;;28.28
71081;BMP180;58740;50.672;18.690;2023-06-22T12:19:17;99254.00;;;28.30
71081;BMP180;58740;50.672;18.690;2023-06-22T12:22:04;99246.00;;;28.30
71081;BMP180;58740;50.672;18.690;2023-06-22T12:24:32;99242.80;;;28.30
71081;BMP180;58740;50.672;18.690;2023-06-22T12:27:00;99240.20;;;28.30
71081;BMP180;58740;50.672;18.690;2023-06-22T12:29:28;99238.80;;;28.30
71081;BMP180;58740;50.672;18.690;2023-06-22T12:31:55;99238.40;;;28.36
71081;BMP180;58740;50.672;18.690;2023-06-22T12:34:23;99231.80;;;28.40
71081;BMP180;58740;50.672;18.690;2023-06-22T12:36:51;99237.00;;;28.40
71081;BMP180;58740;50.672;18.690;2023-06-22T12:39:21;99232.00;;;28.46
71081;BMP180;58740;50.672;18.690;2023-06-22T12:41:49;99231.00;;;28.50
71081;BMP180;58740;50.672;18.690;2023-06-22T12:44:17;99220.20;;;28.50
71081;BMP180;58740;50.672;18.690;2023-06-22T12:46:46;99219.60;;;28.50
71081;BMP180;58740;50.672;18.690;2023-06-22T12:49:15;99221.80;;;28.50
71081;BMP180;58740;50.672;18.690;2023-06-22T12:52:11;99219.80;;;28.50
71081;BMP180;58740;50.672;18.690;2023-06-22T12:54:41;99218.40;;;28.50
71081;BMP180;58740;50.672;18.690;2023-06-22T12:57:28;99218.40;;;28.50
71081;BMP180;58740;50.672;18.690;2023-06-22T12:59:55;99219.20;;;28.60
71081;BMP180;58740;50.672;18.690;2023-06-22T13:02:23;99212.20;;;28.60
71081;BMP180;58740;50.672;18.690;2023-06-22T13:05:05;99209.20;;;28.60
71081;BMP180;58740;50.672;18.690;2023-06-22T13:07:35;99208.00;;;28.60
71081;BMP180;58740;50.672;18.690;2023-06-22T13:10:04;99212.20;;;28.60
71081;BMP180;58740;50.672;18.690;2023-06-22T13:12:32;99208.80;;;28.60
71081;BMP180;58740;50.672;18.690;2023-06-22T13:15:00;99210.40;;;28.60
71081;BMP180;58740;50.672;18.690;2023-06-22T13:17:30;99201.20;;;28.60
71081;BMP180;58740;50.672;18.690;2023-06-22T13:19:58;99198.40;;;28.60
71081;BMP180;58740;50.672;18.690;2023-06-22T13:24:55;99202.40;;;28.60
71081;BMP180;58740;50.672;18.690;2023-06-22T13:27:23;99197.00;;;28.60
71081;BMP180;58740;50.672;18.690;2023-06-22T13:29:52;99193.00;;;28.60
71081;BMP180;58740;50.672;18.690;2023-06-22T13:32:20;99187.60;;;28.60
71081;BMP180;58740;50.672;18.690;2023-06-22T13:34:53;99188.40;;;28.60
71081;BMP180;58740;50.672;18.690;2023-06-22T13:37:21;99192.00;;;28.60
71081;BMP180;58740;50.672;18.690;2023-06-22T13:39:49;99194.80;;;28.62
71081;BMP180;58740;50.672;18.690;2023-06-22T13:42:17;99201.80;;;28.70
71081;BMP180;58740;50.672;18.690;2023-06-22T13:44:48;99194.00;;;28.70
71081;BMP180;58740;50.672;18.690;2023-06-22T13:47:16;99194.60;;;28.72
71081;BMP180;58740;50.672;18.690;2023-06-22T13:49:44;99189.80;;;28.78
71081;BMP180;58740;50.672;18.690;2023-06-22T13:52:12;99185.00;;;28.80
71081;BMP180;58740;50.672;18.690;2023-06-22T13:54:40;99186.00;;;28.80
71081;BMP180;58740;50.672;18.690;2023-06-22T13:57:08;99181.60;;;28.80
71081;BMP180;58740;50.672;18.690;2023-06-22T13:59:35;99175.80;;;28.80
71081;BMP180;58740;50.672;18.690;2023-06-22T14:02:04;99180.20;;;28.80
71081;BMP180;58740;50.672;18.690;2023-06-22T14:04:31;99174.60;;;28.80
71081;BMP180;58740;50.672;18.690;2023-06-22T14:06:59;99171.40;;;28.80
71081;BMP180;58740;50.672;18.690;2023-06-22T14:09:27;99174.00;;;28.80
71081;BMP180;58740;50.672;18.690;2023-06-22T14:11:55;99168.20;;;28.80
71081;BMP180;58740;50.672;18.690;2023-06-22T14:14:23;99171.60;;;28.80
71081;BMP180;58740;50.672;18.690;2023-06-22T14:16:51;99173.80;;;28.80
71081;BMP180;58740;50.672;18.690;2023-06-22T14:19:19;99171.60;;;28.80
71081;BMP180;58740;50.672;18.690;2023-06-22T14:21:47;99167.40;;;28.80
71081;BMP180;58740;50.672;18.690;2023-06-22T14:24:15;99166.00;;;28.74
71081;BMP180;58740;50.672;18.690;2023-06-22T14:26:43;99164.00;;;28.80
71081;BMP180;58740;50.672;18.690;2023-06-22T14:29:11;99155.00;;;28.80
71081;BMP180;58740;50.672;18.690;2023-06-22T14:31:38;99156.40;;;28.80
71081;BMP180;58740;50.672;18.690;2023-06-22T14:34:06;99152.60;;;28.80
71081;BMP180;58740;50.672;18.690;2023-06-22T14:36:34;99153.80;;;28.80